APL Norway — A8NC4 — position and weather

sailwx.info

Track history (hours):
 
Tides and Currents Weather Stations Pressure Air Temp Water Temp Dewpoint Dewpoint Depression Visibility Wind Speed Wind Dir Waves Ship Positions

APL Norway

Last reported at 2017-Aug-18 05:43 UTC. Time now 2017-Aug-21 08:31 UTC.
Position N 01°14' E 103°59'.

Length 295 m; draft 9.2 m.

Type: Ship (hazmat cat A). MMSI: 636013456.

Date/timePositionNaut miles runAvg speedWind from/ knotsBaromVisibWave heightAir tempDewpointWater temp
2017-Aug-18 05:43N 01°14' E 103°59'416.8
2017-Aug-18 05:30N 01°13' E 103°56'713.3
2017-Aug-18 05:00N 01°12' E 103°50'4 7.5
2017-Aug-18 04:30N 01°14' E 103°47'1 2.3
2017-Aug-18 03:58N 01°15' E 103°47'0 0.0
2017-Aug-18 03:22N 01°15' E 103°47'0 0.0
2017-Aug-18 02:58N 01°15' E 103°47'0 0.1
2017-Aug-18 02:28N 01°15' E 103°47'0 0.1
2017-Aug-18 01:58N 01°15' E 103°47'0 0.0
2017-Aug-18 01:28N 01°15' E 103°47'0 0.0
2017-Aug-18 00:55N 01°15' E 103°47'0 0.1
2017-Aug-18 00:28N 01°15' E 103°47'0 0.0
2017-Aug-17 23:58N 01°15' E 103°47'0 0.1
2017-Aug-17 23:28N 01°15' E 103°47'0 0.1
2017-Aug-17 22:58N 01°15' E 103°47'0 0.0
2017-Aug-17 22:28N 01°15' E 103°47'0 0.0
2017-Aug-17 21:58N 01°15' E 103°47'0 0.0
2017-Aug-17 21:28N 01°15' E 103°47'0 0.1
2017-Aug-17 20:58N 01°15' E 103°47'0 0.0
2017-Aug-17 20:28N 01°15' E 103°47'0 0.0
2017-Aug-17 19:58N 01°15' E 103°47'0 0.0
2017-Aug-17 19:28N 01°15' E 103°47'0 0.1
2017-Aug-17 18:58N 01°15' E 103°47'0 0.1
2017-Aug-17 18:28N 01°15' E 103°47'0 0.1
2017-Aug-17 17:58N 01°15' E 103°47'0 0.0
2017-Aug-17 17:28N 01°15' E 103°47'0 0.1
2017-Aug-17 16:58N 01°15' E 103°47'0 0.0
2017-Aug-17 16:28N 01°15' E 103°47'0 0.0
2017-Aug-17 15:58N 01°15' E 103°47'0 0.0
2017-Aug-17 15:28N 01°15' E 103°47'0 0.0
2017-Aug-17 14:58N 01°15' E 103°47'0 0.0
2017-Aug-17 14:28N 01°15' E 103°47'0 0.0
2017-Aug-17 13:58N 01°15' E 103°47'0 0.0
2017-Aug-17 13:28N 01°15' E 103°47'0 0.1
2017-Aug-17 13:00N 01°15' E 103°47'1 1.6
2017-Aug-17 12:30N 01°15' E 103°47'2 4.1
2017-Aug-17 12:00N 01°15' E 103°45'4 8.5
2017-Aug-17 11:30N 01°13' E 103°41'4 8.3
2017-Aug-17 11:00N 01°12' E 103°37'2 4.9
2017-Aug-17 10:30N 01°12' E 103°35'3 5.2
2017-Aug-17 10:00N 01°11' E 103°33'3 5.9
2017-Aug-17 09:30N 01°11' E 103°30'3 6.8
2017-Aug-17 09:00N 01°11' E 103°26'4 7.3
2017-Aug-17 08:29N 01°13' E 103°23'3 7.3
2017-Aug-17 08:00N 01°15' E 103°21'5 8.9
2017-Aug-17 07:28N 01°19' E 103°17'  
Track history (hours):
 
Tides and Currents Weather Stations Pressure Air Temp Water Temp Dewpoint Dewpoint Depression Visibility Wind Speed Wind Dir Waves Ship Positions

APL Norway

Last reported at 2017-Aug-18 05:43 UTC. Time now 2017-Aug-21 08:31 UTC.
Position N 01°14' E 103°59'.

Length 295 m; draft 9.2 m.

Type: Ship (hazmat cat A). MMSI: 636013456.

Date/timePositionNaut miles runAvg speedWind from/ knotsBaromVisibWave heightAir tempDewpointWater temp
2017-Aug-18 05:43N 01°14' E 103°59'416.8
2017-Aug-18 05:30N 01°13' E 103°56'713.3
2017-Aug-18 05:00N 01°12' E 103°50'4 7.5
2017-Aug-18 04:30N 01°14' E 103°47'1 2.3
2017-Aug-18 03:58N 01°15' E 103°47'0 0.0
2017-Aug-18 03:22N 01°15' E 103°47'0 0.0
2017-Aug-18 02:58N 01°15' E 103°47'0 0.1
2017-Aug-18 02:28N 01°15' E 103°47'0 0.1
2017-Aug-18 01:58N 01°15' E 103°47'0 0.0
2017-Aug-18 01:28N 01°15' E 103°47'0 0.0
2017-Aug-18 00:55N 01°15' E 103°47'0 0.1
2017-Aug-18 00:28N 01°15' E 103°47'0 0.0
2017-Aug-17 23:58N 01°15' E 103°47'0 0.1
2017-Aug-17 23:28N 01°15' E 103°47'0 0.1
2017-Aug-17 22:58N 01°15' E 103°47'0 0.0
2017-Aug-17 22:28N 01°15' E 103°47'0 0.0
2017-Aug-17 21:58N 01°15' E 103°47'0 0.0
2017-Aug-17 21:28N 01°15' E 103°47'0 0.1
2017-Aug-17 20:58N 01°15' E 103°47'0 0.0
2017-Aug-17 20:28N 01°15' E 103°47'0 0.0
2017-Aug-17 19:58N 01°15' E 103°47'0 0.0
2017-Aug-17 19:28N 01°15' E 103°47'0 0.1
2017-Aug-17 18:58N 01°15' E 103°47'0 0.1
2017-Aug-17 18:28N 01°15' E 103°47'0 0.1
2017-Aug-17 17:58N 01°15' E 103°47'0 0.0
2017-Aug-17 17:28N 01°15' E 103°47'0 0.1
2017-Aug-17 16:58N 01°15' E 103°47'0 0.0
2017-Aug-17 16:28N 01°15' E 103°47'0 0.0
2017-Aug-17 15:58N 01°15' E 103°47'0 0.0
2017-Aug-17 15:28N 01°15' E 103°47'0 0.0
2017-Aug-17 14:58N 01°15' E 103°47'0 0.0
2017-Aug-17 14:28N 01°15' E 103°47'0 0.0
2017-Aug-17 13:58N 01°15' E 103°47'0 0.0
2017-Aug-17 13:28N 01°15' E 103°47'0 0.1
2017-Aug-17 13:00N 01°15' E 103°47'1 1.6
2017-Aug-17 12:30N 01°15' E 103°47'2 4.1
2017-Aug-17 12:00N 01°15' E 103°45'4 8.5
2017-Aug-17 11:30N 01°13' E 103°41'4 8.3
2017-Aug-17 11:00N 01°12' E 103°37'2 4.9
2017-Aug-17 10:30N 01°12' E 103°35'3 5.2
2017-Aug-17 10:00N 01°11' E 103°33'3 5.9
2017-Aug-17 09:30N 01°11' E 103°30'3 6.8
2017-Aug-17 09:00N 01°11' E 103°26'4 7.3
2017-Aug-17 08:29N 01°13' E 103°23'3 7.3
2017-Aug-17 08:00N 01°15' E 103°21'5 8.9
2017-Aug-17 07:28N 01°19' E 103°17'  

Dump ship's entire track history